Alto Horizonte, Brazil
Current Conditions -  °F | °C
As of 9:00 AM on Friday 19 Dec 2014 (Local Time) from SBAN Reporting Station
Clear Clear  
Wind Chill: 70°   Ceiling: Unl
Heat Index: 70°   Visibility: 6mi
Dew Point: 64°   Wind: 3mph
Humidity: 83%   Direction: 20°NNE
Pressure: 30"   Gusts: NA
Location:  14.2°S, 49.34°W
Report Text: SBAN 191100Z 02003KT CAVOK 21/18 Q1016
Loading
Personal Weather Stations






























Interactive Weather Map New forecast layout! Learn more

10-Day Weather Forecast

Advertisements
Track Severe Weather on mobile